createdAt,value
2022-09-12T00:02:30.593Z,12.30
2022-09-12T00:05:17.414Z,12.20
2022-09-12T00:08:04.719Z,12.10
2022-09-12T00:10:51.575Z,12.00
2022-09-12T00:13:41.901Z,12.00
2022-09-12T00:16:31.255Z,11.90
2022-09-12T00:19:18.768Z,11.90
2022-09-12T00:22:05.483Z,12.00
2022-09-12T00:24:52.227Z,12.00
2022-09-12T00:27:38.974Z,12.10
2022-09-12T00:30:26.000Z,12.20
2022-09-12T00:33:14.127Z,12.20
2022-09-12T00:36:06.482Z,12.20
2022-09-12T00:38:54.745Z,12.20
2022-09-12T00:41:41.504Z,12.20
2022-09-12T00:44:28.369Z,12.20
2022-09-12T00:47:24.638Z,12.20
2022-09-12T00:50:14.177Z,12.10
2022-09-12T00:53:07.952Z,12.00
2022-09-12T00:55:56.027Z,11.90
2022-09-12T00:59:00.996Z,11.90
2022-09-12T01:01:51.027Z,12.00
2022-09-12T01:04:40.432Z,12.00
2022-09-12T01:07:27.177Z,12.00
2022-09-12T01:10:14.210Z,12.00
2022-09-12T01:13:01.306Z,11.90
2022-09-12T01:15:48.020Z,11.90
2022-09-12T01:18:48.553Z,11.90
2022-09-12T01:22:05.528Z,11.80
2022-09-12T01:25:04.341Z,11.70
2022-09-12T01:28:07.018Z,11.60
2022-09-12T01:31:32.559Z,11.50
2022-09-12T01:34:40.901Z,11.50
2022-09-12T01:37:57.170Z,11.50
2022-09-12T01:41:02.121Z,11.40
2022-09-12T01:43:51.918Z,11.40
2022-09-12T01:46:50.273Z,11.30
2022-09-12T01:49:58.871Z,11.30
2022-09-12T01:52:50.162Z,11.30
2022-09-12T01:55:44.066Z,11.30
2022-09-12T01:58:45.392Z,11.40
2022-09-12T02:01:35.243Z,11.40
2022-09-12T02:04:58.111Z,11.40
2022-09-12T02:08:10.289Z,11.50
2022-09-12T02:11:06.535Z,11.50
2022-09-12T02:14:10.766Z,11.50
2022-09-12T02:17:05.242Z,11.60
2022-09-12T02:19:57.355Z,11.50
2022-09-12T02:22:46.686Z,11.50
2022-09-12T02:25:36.248Z,11.40
2022-09-12T02:28:38.106Z,11.50
2022-09-12T02:31:47.673Z,11.40
2022-09-12T02:34:43.539Z,11.30
2022-09-12T02:37:51.759Z,11.30
2022-09-12T02:40:38.878Z,11.20
2022-09-12T02:43:25.692Z,11.20
2022-09-12T02:46:35.273Z,11.20
2022-09-12T02:49:22.939Z,11.10
2022-09-12T02:52:09.985Z,11.10
2022-09-12T02:54:58.125Z,11.00
2022-09-12T02:57:44.796Z,11.00
2022-09-12T03:00:37.816Z,11.00
2022-09-12T03:03:43.564Z,11.00
2022-09-12T03:06:35.064Z,11.00
2022-09-12T03:09:42.979Z,11.10
2022-09-12T03:12:32.825Z,11.10
2022-09-12T03:15:51.016Z,11.20
2022-09-12T03:19:02.061Z,11.30
2022-09-12T03:21:50.155Z,11.30
2022-09-12T03:24:44.456Z,11.20
2022-09-12T03:27:44.316Z,11.20
2022-09-12T03:30:31.384Z,11.20
2022-09-12T03:33:20.819Z,11.20
2022-09-12T03:36:14.894Z,11.20
2022-09-12T03:39:01.615Z,11.10
2022-09-12T03:41:48.412Z,11.00
2022-09-12T03:44:35.109Z,10.90
2022-09-12T03:47:21.826Z,10.90
2022-09-12T03:50:09.055Z,11.00
2022-09-12T03:52:55.787Z,10.90
2022-09-12T03:55:42.478Z,11.00
2022-09-12T03:58:30.968Z,11.10
2022-09-12T04:01:19.961Z,11.10
2022-09-12T04:04:06.745Z,11.00
2022-09-12T04:06:53.428Z,11.00
2022-09-12T04:09:40.179Z,10.90
2022-09-12T04:12:26.909Z,10.90
2022-09-12T04:15:13.892Z,10.80
2022-09-12T04:18:05.598Z,10.70
2022-09-12T04:20:52.780Z,10.60
2022-09-12T04:23:39.609Z,10.60
2022-09-12T04:26:26.409Z,10.60
2022-09-12T04:29:15.046Z,10.60
2022-09-12T04:32:02.144Z,10.50
2022-09-12T04:34:50.094Z,10.50
2022-09-12T04:37:36.711Z,10.50
2022-09-12T04:40:23.471Z,10.50
2022-09-12T04:43:14.243Z,10.50
2022-09-12T04:46:06.489Z,10.50
2022-09-12T04:48:56.636Z,10.50
2022-09-12T04:51:43.856Z,10.40
2022-09-12T04:54:30.618Z,10.40
2022-09-12T04:57:17.454Z,10.40
2022-09-12T05:00:07.328Z,10.40
2022-09-12T05:02:54.187Z,10.30
2022-09-12T05:05:40.939Z,10.40
2022-09-12T05:08:27.614Z,10.40
2022-09-12T05:11:24.589Z,10.40
2022-09-12T05:14:12.859Z,10.50
2022-09-12T05:17:01.873Z,10.50
2022-09-12T05:19:48.884Z,10.60
2022-09-12T05:22:35.619Z,10.60
2022-09-12T05:25:22.283Z,10.60
2022-09-12T05:28:09.010Z,10.60
2022-09-12T05:31:02.099Z,10.60
2022-09-12T05:33:50.921Z,10.70
2022-09-12T05:36:38.519Z,10.70
2022-09-12T05:39:25.682Z,10.70
2022-09-12T05:42:12.392Z,10.70
2022-09-12T05:44:59.162Z,10.70
2022-09-12T05:47:48.667Z,10.70
2022-09-12T05:50:35.723Z,10.80
2022-09-12T05:53:22.491Z,10.80
2022-09-12T05:56:15.184Z,11.00
2022-09-12T05:59:05.385Z,11.00
2022-09-12T06:01:52.416Z,11.30
2022-09-12T06:04:40.926Z,11.40
2022-09-12T06:07:27.651Z,11.50
2022-09-12T06:10:15.994Z,11.50
2022-09-12T06:13:04.330Z,11.60
2022-09-12T06:15:51.311Z,11.60
2022-09-12T06:18:39.301Z,11.60
2022-09-12T06:21:26.695Z,11.60
2022-09-12T06:24:14.047Z,11.70
2022-09-12T06:27:02.309Z,11.70
2022-09-12T06:29:49.011Z,11.80
2022-09-12T06:32:35.951Z,11.80
2022-09-12T06:35:23.683Z,11.80
2022-09-12T06:38:11.240Z,11.80
2022-09-12T06:40:58.630Z,11.80
2022-09-12T06:43:45.536Z,11.80
2022-09-12T06:46:32.632Z,11.80
2022-09-12T06:49:19.358Z,11.90
2022-09-12T06:52:07.278Z,12.00
2022-09-12T06:54:53.870Z,12.10
2022-09-12T06:57:41.320Z,12.20
2022-09-12T07:00:28.160Z,12.30
2022-09-12T07:03:14.938Z,12.30
2022-09-12T07:06:06.987Z,12.40
2022-09-12T07:08:53.728Z,12.40
2022-09-12T07:11:41.896Z,12.50
2022-09-12T07:14:28.952Z,12.50
2022-09-12T07:17:15.736Z,12.60
2022-09-12T07:20:03.043Z,12.70
2022-09-12T07:22:50.929Z,12.90
2022-09-12T07:25:37.699Z,13.00
2022-09-12T07:28:30.137Z,13.10
2022-09-12T07:31:22.763Z,13.20
2022-09-12T07:34:09.822Z,13.30
2022-09-12T07:36:56.551Z,13.40
2022-09-12T07:39:43.377Z,13.50
2022-09-12T07:42:30.936Z,13.60
2022-09-12T07:45:17.650Z,13.80
2022-09-12T07:48:04.633Z,13.90
2022-09-12T07:50:59.893Z,13.90
2022-09-12T07:53:47.538Z,14.00
2022-09-12T07:56:38.695Z,14.10
2022-09-12T07:59:50.798Z,14.20
2022-09-12T08:02:32.936Z,14.30
2022-09-12T08:05:20.848Z,14.40
2022-09-12T08:08:07.495Z,14.50
2022-09-12T08:10:58.057Z,14.60
2022-09-12T08:13:45.745Z,14.70
2022-09-12T08:16:33.171Z,14.80
2022-09-12T08:19:19.945Z,14.90
2022-09-12T08:22:06.748Z,15.00
2022-09-12T08:24:53.650Z,15.10
2022-09-12T08:27:42.922Z,15.20
2022-09-12T08:30:29.669Z,15.30
2022-09-12T08:33:16.684Z,15.40
2022-09-12T08:36:10.152Z,15.50
2022-09-12T08:39:02.222Z,15.60
2022-09-12T08:41:56.598Z,15.70
2022-09-12T08:44:52.094Z,15.80
2022-09-12T08:47:41.656Z,15.90
2022-09-12T08:50:28.382Z,16.00
2022-09-12T08:53:20.270Z,16.10
2022-09-12T08:56:11.701Z,16.20
2022-09-12T08:58:59.339Z,16.30
2022-09-12T09:01:46.199Z,16.40
2022-09-12T09:04:47.995Z,16.50
2022-09-12T09:07:37.531Z,16.60
2022-09-12T09:10:34.820Z,16.70
2022-09-12T09:14:12.423Z,16.80
2022-09-12T09:17:00.552Z,17.10
2022-09-12T09:20:11.982Z,17.20
2022-09-12T09:23:01.915Z,17.30
2022-09-12T09:25:53.772Z,17.50
2022-09-12T09:29:09.642Z,17.70
2022-09-12T09:32:00.368Z,17.90
2022-09-12T09:34:47.976Z,18.10
2022-09-12T09:37:58.566Z,18.30
2022-09-12T09:40:56.313Z,18.60
2022-09-12T09:43:43.156Z,18.80
2022-09-12T09:46:30.110Z,19.00
2022-09-12T09:49:17.486Z,19.10
2022-09-12T09:52:08.099Z,19.20
2022-09-12T09:55:00.970Z,19.30
2022-09-12T09:57:47.797Z,19.50
2022-09-12T10:00:36.632Z,19.70
2022-09-12T10:03:29.786Z,19.90
2022-09-12T10:06:25.291Z,20.10
2022-09-12T10:09:15.165Z,20.20
2022-09-12T10:12:21.403Z,20.30
2022-09-12T10:15:34.974Z,20.50
2022-09-12T10:18:37.308Z,20.80
2022-09-12T10:22:03.691Z,21.00
2022-09-12T10:24:56.800Z,21.30
2022-09-12T10:27:43.618Z,21.50
2022-09-12T10:30:30.496Z,21.70
2022-09-12T10:33:17.267Z,21.90
2022-09-12T10:36:04.284Z,22.10
2022-09-12T10:38:57.235Z,22.30
2022-09-12T10:41:44.282Z,22.70
2022-09-12T10:44:33.559Z,23.00
2022-09-12T10:47:23.123Z,23.30
2022-09-12T10:50:32.083Z,23.50
2022-09-12T10:53:20.643Z,24.00
2022-09-12T10:56:13.478Z,24.60
2022-09-12T10:59:20.282Z,25.40
2022-09-12T11:02:28.461Z,26.60
2022-09-12T11:05:32.176Z,29.90
2022-09-12T11:08:29.716Z,33.90
2022-09-12T11:11:35.191Z,37.70
2022-09-12T11:14:43.545Z,41.30
2022-09-12T11:18:00.611Z,45.10
2022-09-12T11:20:54.376Z,48.00
2022-09-12T11:24:03.010Z,49.60
2022-09-12T11:27:23.219Z,50.20
2022-09-12T11:30:13.458Z,49.20
2022-09-12T11:33:07.711Z,47.60
2022-09-12T11:35:57.432Z,47.60
2022-09-12T11:38:50.002Z,49.40
2022-09-12T11:41:39.715Z,51.10
2022-09-12T11:44:42.886Z,52.50
2022-09-12T11:47:31.682Z,53.40
2022-09-12T11:50:26.151Z,53.10
2022-09-12T11:53:22.915Z,54.10
2022-09-12T11:56:18.946Z,54.80
2022-09-12T11:59:15.782Z,56.10
2022-09-12T12:02:04.110Z,56.80
2022-09-12T12:05:20.561Z,57.30
2022-09-12T12:08:08.072Z,57.60
2022-09-12T12:11:00.799Z,55.40
2022-09-12T12:13:54.467Z,52.40
2022-09-12T12:16:41.942Z,51.80
2022-09-12T12:19:34.636Z,52.50
2022-09-12T12:22:24.074Z,53.30
2022-09-12T12:25:16.215Z,51.20
2022-09-12T12:28:06.474Z,51.70
2022-09-12T12:30:56.715Z,53.40
2022-09-12T12:33:43.439Z,53.70
2022-09-12T12:36:40.879Z,54.20
2022-09-12T12:39:33.749Z,51.80
2022-09-12T12:42:35.430Z,50.20
2022-09-12T12:45:28.233Z,50.00
2022-09-12T12:48:18.079Z,50.20
2022-09-12T12:51:34.229Z,50.70
2022-09-12T12:54:39.950Z,51.20
2022-09-12T12:57:48.418Z,50.90
2022-09-12T13:00:40.335Z,50.50
2022-09-12T13:03:33.207Z,49.20
2022-09-12T13:06:31.437Z,47.60
2022-09-12T13:09:45.387Z,45.50
2022-09-12T13:12:47.749Z,42.90
2022-09-12T13:15:37.345Z,40.40
2022-09-12T13:18:27.755Z,38.60
2022-09-12T13:21:17.648Z,37.00
2022-09-12T13:24:16.098Z,35.40
2022-09-12T13:27:02.951Z,34.00
2022-09-12T13:29:50.214Z,33.10
2022-09-12T13:32:36.967Z,32.60
2022-09-12T13:35:42.977Z,32.00
2022-09-12T13:38:47.043Z,31.40
2022-09-12T13:41:42.196Z,30.90
2022-09-12T13:44:30.907Z,30.40
2022-09-12T13:47:34.672Z,29.70
2022-09-12T13:50:32.202Z,29.20
2022-09-12T13:53:23.273Z,28.80
2022-09-12T13:56:17.350Z,28.60
2022-09-12T13:59:12.758Z,28.20
2022-09-12T14:01:59.625Z,27.90
2022-09-12T14:05:10.342Z,27.80
2022-09-12T14:08:04.118Z,27.80
2022-09-12T14:10:51.296Z,27.80
2022-09-12T14:13:39.232Z,27.70
2022-09-12T14:16:28.949Z,27.60
2022-09-12T14:19:19.286Z,27.50
2022-09-12T14:22:13.186Z,27.40
2022-09-12T14:25:01.067Z,27.00
2022-09-12T14:27:52.503Z,26.70
2022-09-12T14:30:41.971Z,26.80
2022-09-12T14:33:32.099Z,26.70
2022-09-12T14:36:27.332Z,26.60
2022-09-12T14:39:29.170Z,26.70
2022-09-12T14:42:20.966Z,26.70
2022-09-12T14:45:18.216Z,26.70
2022-09-12T14:48:05.001Z,26.60
2022-09-12T14:50:53.035Z,26.70
2022-09-12T14:53:48.889Z,26.60
2022-09-12T14:56:54.996Z,26.60
2022-09-12T14:59:41.861Z,26.40
2022-09-12T15:02:29.454Z,26.10
2022-09-12T15:05:22.928Z,25.90
2022-09-12T15:08:15.923Z,25.70
2022-09-12T15:11:02.720Z,25.40
2022-09-12T15:13:52.231Z,25.20
2022-09-12T15:16:38.984Z,25.00
2022-09-12T15:19:25.679Z,25.00
2022-09-12T15:22:13.798Z,25.20
2022-09-12T15:25:00.626Z,25.30
2022-09-12T15:27:48.811Z,25.30
2022-09-12T15:30:35.533Z,25.40
2022-09-12T15:33:25.728Z,25.40
2022-09-12T15:36:16.543Z,25.40
2022-09-12T15:39:03.992Z,25.40
2022-09-12T15:41:50.852Z,25.30
2022-09-12T15:44:38.015Z,25.20
2022-09-12T15:47:24.817Z,25.10
2022-09-12T15:50:11.951Z,25.10
2022-09-12T15:52:59.011Z,25.00
2022-09-12T15:55:45.967Z,25.00
2022-09-12T15:58:32.716Z,25.00
2022-09-12T16:01:19.781Z,24.80
2022-09-12T16:04:23.650Z,24.80
2022-09-12T16:07:10.409Z,24.70
2022-09-12T16:09:57.282Z,24.60
2022-09-12T16:12:47.243Z,24.60
2022-09-12T16:15:33.953Z,24.50
2022-09-12T16:18:20.746Z,24.30
2022-09-12T16:21:10.109Z,24.10
2022-09-12T16:24:03.491Z,23.90
2022-09-12T16:26:50.351Z,23.60
2022-09-12T16:29:37.327Z,23.30
2022-09-12T16:32:24.107Z,23.10
2022-09-12T16:35:10.893Z,22.90
2022-09-12T16:37:57.665Z,22.80
2022-09-12T16:40:44.489Z,22.60
2022-09-12T16:43:32.521Z,22.50
2022-09-12T16:46:22.315Z,22.50
2022-09-12T16:49:11.390Z,22.40
2022-09-12T16:51:58.142Z,22.30
2022-09-12T16:54:45.021Z,22.20
2022-09-12T16:57:32.708Z,22.10
2022-09-12T17:00:19.415Z,22.10
2022-09-12T17:03:06.105Z,22.10
2022-09-12T17:06:13.086Z,22.00
2022-09-12T17:09:01.127Z,22.00
2022-09-12T17:11:49.532Z,21.90
2022-09-12T17:14:36.365Z,21.90
2022-09-12T17:17:23.265Z,21.80
2022-09-12T17:20:09.990Z,21.80
2022-09-12T17:22:56.755Z,21.70
2022-09-12T17:25:48.516Z,21.70
2022-09-12T17:28:35.831Z,21.60
2022-09-12T17:31:22.691Z,21.40
2022-09-12T17:34:14.150Z,21.30
2022-09-12T17:37:00.924Z,21.20
2022-09-12T17:39:48.052Z,21.10
2022-09-12T17:42:35.704Z,21.00
2022-09-12T17:45:23.012Z,20.90
2022-09-12T17:48:11.340Z,20.80
2022-09-12T17:51:13.417Z,20.70
2022-09-12T17:54:04.696Z,20.60
2022-09-12T17:56:52.108Z,20.50
2022-09-12T17:59:38.971Z,20.40
2022-09-12T18:02:25.732Z,20.30
2022-09-12T18:05:12.590Z,20.20
2022-09-12T18:08:02.164Z,20.10
2022-09-12T18:10:49.718Z,20.00
2022-09-12T18:13:36.566Z,19.90
2022-09-12T18:16:23.483Z,19.70
2022-09-12T18:19:11.297Z,19.70
2022-09-12T18:21:58.441Z,19.70
2022-09-12T18:24:45.204Z,19.70
2022-09-12T18:27:32.053Z,19.70
2022-09-12T18:30:23.425Z,19.70
2022-09-12T18:33:10.124Z,19.70
2022-09-12T18:35:56.822Z,19.70
2022-09-12T18:38:44.191Z,19.50
2022-09-12T18:41:30.929Z,19.40
2022-09-12T18:44:17.805Z,19.30
2022-09-12T18:47:04.724Z,19.20
2022-09-12T18:49:51.526Z,19.20
2022-09-12T18:52:38.214Z,19.10
2022-09-12T18:55:24.964Z,19.10
2022-09-12T18:58:11.852Z,19.00
2022-09-12T19:00:58.909Z,19.00
2022-09-12T19:03:45.909Z,18.80
2022-09-12T19:06:35.508Z,18.80
2022-09-12T19:09:22.289Z,18.80
2022-09-12T19:12:09.111Z,18.60
2022-09-12T19:14:55.798Z,18.60
2022-09-12T19:17:42.571Z,18.50
2022-09-12T19:20:29.383Z,18.50
2022-09-12T19:23:16.121Z,18.50
2022-09-12T19:26:06.591Z,18.50
2022-09-12T19:28:55.312Z,18.40
2022-09-12T19:31:45.611Z,18.40
2022-09-12T19:34:32.346Z,18.40
2022-09-12T19:37:19.146Z,18.30
2022-09-12T19:40:07.708Z,18.30
2022-09-12T19:42:54.494Z,18.20
2022-09-12T19:45:47.819Z,18.20
2022-09-12T19:48:35.195Z,18.10
2022-09-12T19:51:24.027Z,18.10
2022-09-12T19:54:11.200Z,18.00
2022-09-12T19:56:58.023Z,17.90
2022-09-12T19:59:46.092Z,17.70
2022-09-12T20:02:32.857Z,17.50
2022-09-12T20:05:20.608Z,17.40
2022-09-12T20:08:07.396Z,17.30
2022-09-12T20:10:57.135Z,17.10
2022-09-12T20:13:45.469Z,16.90
2022-09-12T20:16:33.442Z,16.80
2022-09-12T20:19:20.478Z,16.70
2022-09-12T20:22:07.362Z,16.70
2022-09-12T20:24:54.089Z,16.70
2022-09-12T20:27:40.755Z,16.80
2022-09-12T20:30:27.822Z,16.80
2022-09-12T20:33:14.499Z,16.80
2022-09-12T20:36:08.723Z,16.70
2022-09-12T20:39:01.126Z,16.70
2022-09-12T20:41:48.425Z,16.70
2022-09-12T20:44:35.519Z,16.60
2022-09-12T20:47:22.265Z,16.50
2022-09-12T20:50:09.583Z,16.30
2022-09-12T20:52:56.423Z,16.20
2022-09-12T20:55:53.024Z,16.20
2022-09-12T20:58:43.790Z,16.10
2022-09-12T21:01:32.336Z,16.00
2022-09-12T21:04:19.140Z,15.90
2022-09-12T21:07:06.118Z,15.80
2022-09-12T21:09:54.326Z,15.70
2022-09-12T21:12:41.033Z,15.80
2022-09-12T21:15:27.811Z,15.80
2022-09-12T21:18:17.178Z,15.80
2022-09-12T21:21:05.270Z,15.70
2022-09-12T21:23:54.025Z,15.50
2022-09-12T21:26:40.844Z,15.40
2022-09-12T21:29:27.804Z,15.30
2022-09-12T21:32:14.711Z,15.30
2022-09-12T21:35:04.293Z,15.20
2022-09-12T21:37:56.247Z,15.10
2022-09-12T21:40:42.979Z,15.00
2022-09-12T21:43:29.718Z,15.00
2022-09-12T21:46:16.518Z,14.90
2022-09-12T21:49:03.329Z,14.90
2022-09-12T21:51:50.959Z,14.90
2022-09-12T21:54:37.691Z,15.00
2022-09-12T21:57:24.467Z,15.00
2022-09-12T22:00:15.245Z,15.10
2022-09-12T22:03:02.664Z,15.20
2022-09-12T22:05:59.602Z,15.20
2022-09-12T22:08:46.436Z,15.10
2022-09-12T22:11:33.428Z,15.00
2022-09-12T22:14:20.397Z,14.90
2022-09-12T22:17:08.073Z,14.80
2022-09-12T22:19:54.774Z,14.80
2022-09-12T22:23:00.026Z,14.70
2022-09-12T22:25:47.127Z,14.80
2022-09-12T22:28:35.509Z,14.80
2022-09-12T22:31:23.125Z,14.90
2022-09-12T22:34:10.427Z,14.90
2022-09-12T22:36:57.160Z,15.00
2022-09-12T22:39:43.907Z,14.90
2022-09-12T22:42:31.218Z,14.80
2022-09-12T22:45:19.127Z,14.70
2022-09-12T22:48:09.042Z,14.60
2022-09-12T22:50:56.203Z,14.50
2022-09-12T22:53:43.323Z,14.50
2022-09-12T22:56:30.180Z,14.40
2022-09-12T22:59:16.896Z,14.40
2022-09-12T23:02:05.094Z,14.30
2022-09-12T23:04:52.353Z,14.30
2022-09-12T23:07:39.169Z,14.30
2022-09-12T23:10:27.138Z,14.20
2022-09-12T23:13:14.014Z,14.20
2022-09-12T23:16:02.421Z,14.20
2022-09-12T23:18:49.880Z,14.30
2022-09-12T23:21:36.696Z,14.30
2022-09-12T23:24:23.558Z,14.30
2022-09-12T23:27:10.357Z,14.30
2022-09-12T23:29:57.280Z,14.30
2022-09-12T23:32:44.764Z,14.20
2022-09-12T23:35:31.666Z,14.20
2022-09-12T23:38:18.375Z,14.10
2022-09-12T23:41:05.186Z,14.10
2022-09-12T23:43:52.389Z,14.10
2022-09-12T23:46:39.151Z,14.10
2022-09-12T23:49:25.889Z,14.00
2022-09-12T23:52:12.631Z,14.00
2022-09-12T23:54:59.392Z,14.00
2022-09-12T23:57:46.171Z,14.00
